Time;durP1;ratioP1;P1;durP2;ratioP2;P2;SDS_P1;SDS_P2;PMS_P1;PMS_P2;Temp;Humidity;BMP_temperature;BMP_pressure;BME280_temperature;BME280_humidity;BME280_pressure;Samples;Min_cycle;Max_cycle;Signal;HPM_P1;HPM_P2
2021/06/28 00:00:16;;;;;;;;;;;;;;;18.84;57.44;97237.38;1705362;83;20196;-76
2021/06/28 00:02:44;;;;;;;;;;;;;;;18.82;58.60;97244.72;1705308;84;20127;-74
2021/06/28 00:05:13;;;;;;;;;;;;;;;18.77;58.80;97238.56;1705648;84;20190;-74
2021/06/28 00:07:41;;;;;;;;;;;;;;;18.73;57.14;97238.08;1705626;83;20102;-75
2021/06/28 00:10:08;;;;;;;;;;;;;;;18.71;57.99;97244.59;1705690;83;20110;-75
2021/06/28 00:12:34;;;;;;;;;;;;;;;18.70;58.32;97248.27;1705476;84;20147;-76
2021/06/28 00:15:01;;;;;;;;;;;;;;;18.70;57.50;97251.75;1705554;84;20168;-78
2021/06/28 00:17:27;;;;;;;;;;;;;;;18.68;57.72;97253.79;1705293;83;20097;-76
2021/06/28 00:19:53;;;;;;;;;;;;;;;18.65;58.52;97255.45;1705575;83;20208;-76
2021/06/28 00:22:19;;;;;;;;;;;;;;;18.64;57.82;97248.96;1705710;83;20130;-76
2021/06/28 00:24:45;;;;;;;;;;;;;;;18.64;59.18;97252.45;1705657;83;20094;-75
2021/06/28 00:27:11;;;;;;;;;;;;;;;18.63;58.11;97251.30;1705645;83;20146;-76
2021/06/28 00:29:38;;;;;;;;;;;;;;;18.65;57.97;97255.97;1705612;83;20164;-75
2021/06/28 00:32:04;;;;;;;;;;;;;;;18.67;58.26;97256.13;1705582;84;20102;-76
2021/06/28 00:34:30;;;;;;;;;;;;;;;18.67;58.39;97254.79;1705463;84;20459;-75
2021/06/28 00:36:57;;;;;;;;;;;;;;;18.72;58.98;97263.62;1705673;83;20150;-75
2021/06/28 00:39:24;;;;;;;;;;;;;;;18.73;59.54;97260.77;1705575;84;20138;-75
2021/06/28 00:41:50;;;;;;;;;;;;;;;18.75;58.37;97257.92;1705765;84;20418;-76
2021/06/28 00:44:17;;;;;;;;;;;;;;;18.76;59.48;97260.92;1705375;83;20106;-75
2021/06/28 00:46:43;;;;;;;;;;;;;;;18.79;59.15;97266.45;1705576;83;20150;-76
2021/06/28 00:49:09;;;;;;;;;;;;;;;18.81;59.25;97265.27;1705574;83;20150;-76
2021/06/28 00:51:35;;;;;;;;;;;;;;;18.81;59.41;97265.75;1705461;83;20138;-75
2021/06/28 00:54:02;;;;;;;;;;;;;;;18.81;59.08;97269.27;1705488;84;20473;-76
2021/06/28 00:56:28;;;;;;;;;;;;;;;18.83;58.91;97273.09;1705520;83;20138;-75
2021/06/28 00:58:55;;;;;;;;;;;;;;;18.83;58.97;97266.41;1705554;83;20102;-76
2021/06/28 01:01:23;;;;;;;;;;;;;;;18.83;58.50;97267.75;1705471;83;20138;-75
2021/06/28 01:03:49;;;;;;;;;;;;;;;18.82;59.30;97271.42;1705483;84;20387;-74
2021/06/28 01:06:15;;;;;;;;;;;;;;;18.82;57.86;97272.76;1685490;84;20098;-74
2021/06/28 01:08:42;;;;;;;;;;;;;;;18.78;58.59;97270.94;1707438;83;20165;-74
2021/06/28 01:11:08;;;;;;;;;;;;;;;18.76;58.83;97270.27;1705496;84;20102;-75
2021/06/28 01:13:37;;;;;;;;;;;;;;;18.70;59.10;97270.44;1705481;84;20114;-76
2021/06/28 01:16:04;;;;;;;;;;;;;;;18.65;58.44;97274.66;1705433;83;20102;-75
2021/06/28 01:18:30;;;;;;;;;;;;;;;18.60;58.39;97276.50;1705553;84;20154;-76
2021/06/28 01:20:58;;;;;;;;;;;;;;;18.55;58.36;97272.16;1705575;83;20106;-74
2021/06/28 01:23:27;;;;;;;;;;;;;;;18.50;58.73;97278.00;1705665;84;20134;-76
2021/06/28 01:25:59;;;;;;;;;;;;;;;18.47;58.73;97278.33;1701290;84;20146;-75
2021/06/28 01:28:27;;;;;;;;;;;;;;;18.42;58.71;97275.34;1705670;83;20102;-75
2021/06/28 01:30:54;;;;;;;;;;;;;;;18.37;59.50;97280.37;1705734;84;20098;-75
2021/06/28 01:33:21;;;;;;;;;;;;;;;18.33;59.16;97279.02;1705563;83;20118;-75
2021/06/28 01:35:47;;;;;;;;;;;;;;;18.29;59.43;97276.34;1705491;83;20095;-77
2021/06/28 01:38:14;;;;;;;;;;;;;;;18.25;59.94;97277.19;1705663;84;20146;-76
2021/06/28 01:40:41;;;;;;;;;;;;;;;18.20;59.30;97275.02;1705759;83;20106;-76
2021/06/28 01:43:08;;;;;;;;;;;;;;;18.17;59.96;97267.86;1707125;83;20102;-75
2021/06/28 01:45:34;;;;;;;;;;;;;;;18.13;59.61;97271.36;1715922;83;20089;-76
2021/06/28 01:48:01;;;;;;;;;;;;;;;18.08;60.31;97267.86;1715998;84;20106;-77
2021/06/28 01:50:30;;;;;;;;;;;;;;;18.08;59.53;97261.70;1715866;83;20101;-76
2021/06/28 01:52:57;;;;;;;;;;;;;;;18.08;59.29;97258.52;1715889;83;20101;-82
2021/06/28 01:55:23;;;;;;;;;;;;;;;18.08;59.39;97258.52;1715981;84;20110;-76
2021/06/28 01:57:53;;;;;;;;;;;;;;;18.08;59.23;97257.19;1715997;84;20409;-76
2021/06/28 02:00:34;;;;;;;;;;;;;;;18.09;59.61;97264.20;1716010;83;20106;-74
2021/06/28 02:03:03;;;;;;;;;;;;;;;18.12;60.71;97266.20;1715938;83;20125;-75
2021/06/28 02:05:32;;;;;;;;;;;;;;;18.13;62.00;97270.02;1715896;83;20126;-79
2021/06/28 02:07:59;;;;;;;;;;;;;;;18.14;60.08;97271.70;1716065;83;20106;-76
2021/06/28 02:10:26;;;;;;;;;;;;;;;18.16;60.17;97268.37;1715919;84;20402;-76
2021/06/28 02:12:52;;;;;;;;;;;;;;;18.17;59.88;97270.04;1716072;83;20105;-75
2021/06/28 02:15:21;;;;;;;;;;;;;;;18.16;59.87;97264.37;1716002;84;20235;-75
2021/06/28 02:17:47;;;;;;;;;;;;;;;18.17;60.31;97271.38;1715839;83;20117;-76
2021/06/28 02:20:13;;;;;;;;;;;;;;;18.18;59.51;97269.52;1716010;84;20097;-77
2021/06/28 02:22:40;;;;;;;;;;;;;;;18.17;60.27;97265.19;1715952;83;20109;-76
2021/06/28 02:25:09;;;;;;;;;;;;;;;18.16;60.37;97274.19;1715805;84;20102;-77
2021/06/28 02:27:36;;;;;;;;;;;;;;;18.15;59.23;97265.84;1715972;83;20102;-77
2021/06/28 02:30:05;;;;;;;;;;;;;;;18.14;60.24;97266.88;1715852;84;20382;-77
2021/06/28 02:32:32;;;;;;;;;;;;;;;18.11;60.03;97265.35;1715890;83;20097;-76
2021/06/28 02:34:58;;;;;;;;;;;;;;;18.07;61.46;97264.86;1716015;84;20110;-77
2021/06/28 02:37:24;;;;;;;;;;;;;;;18.04;59.62;97260.36;1715971;83;20097;-76
2021/06/28 02:39:50;;;;;;;;;;;;;;;17.99;60.88;97260.04;1715956;83;20097;-78
2021/06/28 02:42:16;;;;;;;;;;;;;;;17.95;61.15;97258.17;1716050;83;20106;-77
2021/06/28 02:44:43;;;;;;;;;;;;;;;17.92;59.33;97260.65;1715983;83;20106;-78
2021/06/28 02:47:09;;;;;;;;;;;;;;;17.88;60.53;97262.00;1715888;83;20106;-78
2021/06/28 02:49:35;;;;;;;;;;;;;;;17.86;60.54;97273.31;1715903;84;20402;-75
2021/06/28 02:52:02;;;;;;;;;;;;;;;17.85;60.88;97266.83;1715906;83;20105;-75
2021/06/28 02:54:30;;;;;;;;;;;;;;;17.84;59.71;97270.49;1715982;83;20102;-76
2021/06/28 02:56:56;;;;;;;;;;;;;;;17.80;60.16;97270.81;1715775;84;20361;-75
2021/06/28 02:59:22;;;;;;;;;;;;;;;17.81;60.29;97273.00;1715928;83;20118;-77
2021/06/28 03:01:49;;;;;;;;;;;;;;;17.81;60.93;97271.66;1715841;84;20097;-76
2021/06/28 03:04:15;;;;;;;;;;;;;;;17.82;60.53;97269.81;1715700;84;20113;-76
2021/06/28 03:06:41;;;;;;;;;;;;;;;17.68;60.28;97249.45;1715796;83;20398;-75
2021/06/28 03:09:07;;;;;;;;;;;;;;;17.83;61.08;97262.97;1715921;83;20105;-76
2021/06/28 03:11:33;;;;;;;;;;;;;;;17.85;60.94;97267.65;1715932;83;20122;-75
2021/06/28 03:13:59;;;;;;;;;;;;;;;17.86;60.62;97266.66;1715949;83;20093;-75
2021/06/28 03:16:25;;;;;;;;;;;;;;;17.88;60.55;97261.14;1715758;84;20133;-76
2021/06/28 03:18:52;;;;;;;;;;;;;;;17.88;60.99;97250.48;1715861;84;20113;-78
2021/06/28 03:21:19;;;;;;;;;;;;;;;17.92;59.84;97255.31;1716009;84;20105;-74
2021/06/28 03:23:45;;;;;;;;;;;;;;;17.94;60.21;97250.66;1715847;84;20100;-76
2021/06/28 03:26:12;;;;;;;;;;;;;;;17.98;60.37;97253.03;1715757;83;20410;-76
2021/06/28 03:28:39;;;;;;;;;;;;;;;18.02;60.67;97257.02;1715890;84;20139;-75
2021/06/28 03:31:06;;;;;;;;;;;;;;;18.05;60.43;97254.84;1716029;83;20082;-76
2021/06/28 03:33:33;;;;;;;;;;;;;;;18.09;60.29;97256.70;1715860;83;20094;-76
2021/06/28 03:35:59;;;;;;;;;;;;;;;18.15;60.87;97257.36;1717891;82;20089;-75
2021/06/28 03:38:26;;;;;;;;;;;;;;;18.24;60.22;97259.02;1715819;84;20114;-76
2021/06/28 03:40:52;;;;;;;;;;;;;;;18.35;60.46;97261.02;1715843;84;20130;-76
2021/06/28 03:43:18;;;;;;;;;;;;;;;18.45;60.28;97260.83;1715831;84;20110;-75
2021/06/28 03:45:46;;;;;;;;;;;;;;;18.55;60.03;97261.48;1720755;82;20427;-75
2021/06/28 03:48:13;;;;;;;;;;;;;;;18.67;60.31;97260.13;1744345;82;20144;-76
2021/06/28 03:50:41;;;;;;;;;;;;;;;18.79;59.84;97255.25;1744551;82;20147;-76
2021/06/28 03:53:12;;;;;;;;;;;;;;;18.94;59.67;97259.41;1744699;81;20103;-76
2021/06/28 03:55:39;;;;;;;;;;;;;;;19.30;59.77;97259.44;1742725;82;20111;-75
2021/06/28 03:58:05;;;;;;;;;;;;;;;19.84;59.28;97265.27;1715266;82;20153;-76
2021/06/28 04:00:31;;;;;;;;;;;;;;;20.46;59.01;97255.93;1715176;82;20134;-74
2021/06/28 04:02:59;;;;;;;;;;;;;;;21.15;58.02;97269.62;1714928;83;20121;-75
2021/06/28 04:05:27;;;;;;;;;;;;;;;21.74;56.86;97267.84;1715004;84;20105;-76
2021/06/28 04:07:54;;;;;;;;;;;;;;;22.32;54.77;97263.72;1715633;82;20097;-76
2021/06/28 04:10:22;;;;;;;;;;;;;;;22.91;54.86;97267.06;1719384;82;20099;-75
2021/06/28 04:12:50;;;;;;;;;;;;;;;23.48;54.94;97266.95;1670812;85;20104;-75
2021/06/28 04:15:17;;;;;;;;;;;;;;;23.98;51.53;97268.88;1670692;85;20219;-76
2021/06/28 04:17:46;;;;;;;;;;;;;;;24.43;50.65;97258.01;1629875;86;20159;-76
2021/06/28 04:20:14;;;;;;;;;;;;;;;24.91;49.64;97262.31;1625415;88;20161;-74
2021/06/28 04:22:41;;;;;;;;;;;;;;;25.41;49.32;97268.50;1625274;88;20150;-75
2021/06/28 04:25:10;;;;;;;;;;;;;;;25.92;45.97;97270.83;1625196;87;20129;-75
2021/06/28 04:27:36;;;;;;;;;;;;;;;26.36;46.64;97269.61;1663757;86;20102;-74
2021/06/28 04:30:08;;;;;;;;;;;;;;;26.76;47.53;97266.56;1655794;86;20147;-72
2021/06/28 04:32:38;;;;;;;;;;;;;;;27.03;46.47;97266.82;1637559;86;20415;-75
2021/06/28 04:35:06;;;;;;;;;;;;;;;27.42;42.63;97259.29;1638020;87;20163;-75
2021/06/28 04:37:33;;;;;;;;;;;;;;;27.87;42.52;97272.45;1677034;84;20094;-75
2021/06/28 04:39:59;;;;;;;;;;;;;;;28.27;41.21;97263.46;1714514;84;20133;-76
2021/06/28 04:42:26;;;;;;;;;;;;;;;28.60;45.10;97264.77;1714693;83;20104;-74
2021/06/28 04:44:53;;;;;;;;;;;;;;;28.90;40.49;97265.22;1710586;83;20209;-74
2021/06/28 04:47:19;;;;;;;;;;;;;;;29.29;39.82;97269.58;1712699;83;20098;-75
2021/06/28 04:49:45;;;;;;;;;;;;;;;29.66;38.48;97267.06;1713001;82;20118;-77
2021/06/28 04:52:11;;;;;;;;;;;;;;;30.01;37.88;97270.20;1721967;82;20386;-74
2021/06/28 04:54:37;;;;;;;;;;;;;;;30.31;38.83;97273.13;1686007;83;20108;-73
2021/06/28 04:57:05;;;;;;;;;;;;;;;30.60;37.54;97273.92;1713448;82;20462;-74
2021/06/28 04:59:32;;;;;;;;;;;;;;;30.69;36.73;97272.95;1712953;83;20174;-75
2021/06/28 05:01:58;;;;;;;;;;;;;;;30.91;35.27;97268.10;1733271;82;20095;-75
2021/06/28 05:04:26;;;;;;;;;;;;;;;31.14;34.49;97271.16;1742527;82;20111;-75
2021/06/28 05:06:52;;;;;;;;;;;;;;;31.44;39.24;97278.08;1738268;82;20148;-73
2021/06/28 05:09:20;;;;;;;;;;;;;;;31.87;33.86;97279.67;1713085;83;20093;-76
2021/06/28 05:11:46;;;;;;;;;;;;;;;32.13;33.44;97275.83;1714912;82;20468;-75
2021/06/28 05:14:14;;;;;;;;;;;;;;;32.28;31.22;97278.71;1713069;83;20085;-74
2021/06/28 05:16:40;;;;;;;;;;;;;;;32.54;30.90;97278.39;1712789;83;20155;-77
2021/06/28 05:19:06;;;;;;;;;;;;;;;32.86;31.21;97279.45;1712877;83;20413;-75
2021/06/28 05:21:32;;;;;;;;;;;;;;;33.15;31.75;97278.52;1713937;82;20114;-75
2021/06/28 05:23:58;;;;;;;;;;;;;;;33.47;32.76;97269.94;1712797;83;20125;-75
2021/06/28 05:26:24;;;;;;;;;;;;;;;33.70;34.01;97273.30;1712922;83;20109;-75
2021/06/28 05:28:50;;;;;;;;;;;;;;;33.93;29.29;97264.62;1713089;83;20097;-75
2021/06/28 05:31:17;;;;;;;;;;;;;;;34.16;28.83;97268.47;1713053;82;20151;-74
2021/06/28 05:33:43;;;;;;;;;;;;;;;34.44;31.90;97272.63;1724574;82;20106;-75
2021/06/28 05:36:09;;;;;;;;;;;;;;;34.66;28.26;97266.86;1742252;82;20087;-74
2021/06/28 05:38:35;;;;;;;;;;;;;;;34.98;28.41;97270.38;1742400;82;20428;-73
2021/06/28 05:41:01;;;;;;;;;;;;;;;35.02;29.66;97270.11;1742084;82;20372;-75
2021/06/28 05:43:28;;;;;;;;;;;;;;;35.15;27.51;97281.02;1740091;82;20409;-74
2021/06/28 05:45:54;;;;;;;;;;;;;;;35.28;27.01;97272.19;1744822;82;20091;-76
2021/06/28 05:48:20;;;;;;;;;;;;;;;35.54;26.82;97270.77;1745334;82;20124;-75
2021/06/28 05:50:46;;;;;;;;;;;;;;;35.87;25.88;97280.71;1733170;82;20106;-76
2021/06/28 05:53:12;;;;;;;;;;;;;;;36.11;29.29;97275.91;1719948;82;20107;-75
2021/06/28 05:55:38;;;;;;;;;;;;;;;36.30;28.80;97280.17;1745402;82;20095;-75
2021/06/28 05:58:05;;;;;;;;;;;;;;;36.49;25.66;97286.36;1728701;82;20109;-75
2021/06/28 06:00:31;;;;;;;;;;;;;;;36.68;28.55;97279.05;1718093;82;20109;-76
2021/06/28 06:03:00;;;;;;;;;;;;;;;36.90;25.16;97280.50;1735024;82;20143;-76
2021/06/28 06:05:25;;;;;;;;;;;;;;;37.08;25.29;97277.57;1744981;82;20391;-74
2021/06/28 06:07:51;;;;;;;;;;;;;;;37.26;24.55;97287.53;1745433;82;20408;-74
2021/06/28 06:10:18;;;;;;;;;;;;;;;37.38;24.24;97289.35;1745434;82;20107;-75
2021/06/28 06:12:44;;;;;;;;;;;;;;;37.45;24.88;97289.80;1744846;82;20174;-75
2021/06/28 06:15:12;;;;;;;;;;;;;;;37.62;25.08;97297.56;1745478;81;20107;-75
2021/06/28 06:17:38;;;;;;;;;;;;;;;37.73;24.55;97296.86;1745454;82;20095;-75
2021/06/28 06:20:06;;;;;;;;;;;;;;;37.95;27.75;97293.55;1743262;82;20128;-74
2021/06/28 06:22:32;;;;;;;;;;;;;;;38.00;24.51;97298.73;1715750;83;20430;-75
2021/06/28 06:24:59;;;;;;;;;;;;;;;38.18;23.59;97293.78;1717850;82;20426;-74
2021/06/28 06:27:25;;;;;;;;;;;;;;;38.30;23.82;97291.11;1715807;83;20211;-76
2021/06/28 06:29:51;;;;;;;;;;;;;;;38.06;24.75;97260.40;1715903;83;20098;-75
2021/06/28 06:32:17;;;;;;;;;;;;;;;38.12;23.23;97297.70;1715952;82;20102;-75
2021/06/28 06:34:43;;;;;;;;;;;;;;;38.20;25.61;97297.03;1715991;83;20138;-76
2021/06/28 06:37:09;;;;;;;;;;;;;;;38.35;23.50;97301.50;1715945;83;20101;-75
2021/06/28 06:39:35;;;;;;;;;;;;;;;38.52;22.56;97298.20;1716065;82;20179;-75
2021/06/28 06:42:02;;;;;;;;;;;;;;;38.72;21.76;97297.60;1744536;82;20111;-77
2021/06/28 06:44:28;;;;;;;;;;;;;;;38.91;21.66;97298.13;1745158;82;20123;-75
2021/06/28 06:46:54;;;;;;;;;;;;;;;39.05;22.11;97298.41;1745781;82;20488;-75
2021/06/28 06:49:20;;;;;;;;;;;;;;;39.19;20.72;97305.84;1745654;82;20151;-73
2021/06/28 06:51:47;;;;;;;;;;;;;;;39.24;20.75;97313.19;1719465;82;20126;-76
2021/06/28 06:54:14;;;;;;;;;;;;;;;39.33;21.19;97309.47;1716115;84;20097;-75
2021/06/28 06:56:40;;;;;;;;;;;;;;;39.34;22.23;97313.02;1716139;82;20118;-75
2021/06/28 06:59:06;;;;;;;;;;;;;;;39.20;21.22;97317.13;1687587;85;20115;-74
2021/06/28 07:01:32;;;;;;;;;;;;;;;39.30;21.24;97323.84;1730795;82;20132;-75
2021/06/28 07:03:59;;;;;;;;;;;;;;;39.56;20.49;97317.80;1745298;82;20091;-75
2021/06/28 07:06:25;;;;;;;;;;;;;;;39.71;20.28;97318.08;1745597;82;20673;-75
2021/06/28 07:08:52;;;;;;;;;;;;;;;39.84;19.47;97317.80;1727136;82;20385;-75
2021/06/28 07:11:18;;;;;;;;;;;;;;;39.95;19.59;97321.16;1717986;82;20402;-76
2021/06/28 07:13:49;;;;;;;;;;;;;;;39.93;19.26;97316.52;1716055;84;20708;-76
2021/06/28 07:16:12;;;;;;;;;;;;;;;40.02;19.93;97312.44;1716432;82;20101;-75
2021/06/28 07:18:38;;;;;;;;;;;;;;;39.85;22.50;97311.16;1731086;82;20400;-75
2021/06/28 07:21:05;;;;;;;;;;;;;;;39.57;23.96;97317.27;1745311;82;20436;-73
2021/06/28 07:23:31;;;;;;;;;;;;;;;39.39;20.68;97308.80;1745704;82;20416;-73
2021/06/28 07:25:58;;;;;;;;;;;;;;;39.17;20.35;97310.30;1745522;82;20176;-74
2021/06/28 07:28:28;;;;;;;;;;;;;;;39.14;22.09;97312.84;1733355;82;20394;-74
2021/06/28 07:30:57;;;;;;;;;;;;;;;38.89;20.99;97310.80;1716009;84;20101;-75
2021/06/28 07:33:25;;;;;;;;;;;;;;;38.69;21.44;97311.42;1716063;84;20105;-74
2021/06/28 07:35:51;;;;;;;;;;;;;;;38.56;20.68;97308.86;1715906;84;20611;-76
2021/06/28 07:38:17;;;;;;;;;;;;;;;38.52;20.16;97309.22;1716512;82;20102;-74
2021/06/28 07:40:43;;;;;;;;;;;;;;;38.41;22.18;97309.95;1716136;84;20097;-76
2021/06/28 07:43:09;;;;;;;;;;;;;;;37.60;19.56;97310.78;1716055;84;20093;-75
2021/06/28 07:45:36;;;;;;;;;;;;;;;37.32;23.36;97311.92;1710631;83;20110;-74
2021/06/28 07:48:02;;;;;;;;;;;;;;;37.10;19.57;97316.56;1717106;83;20102;-76
2021/06/28 07:50:29;;;;;;;;;;;;;;;36.05;21.80;97315.45;1705312;83;20098;-74
2021/06/28 07:52:56;;;;;;;;;;;;;;;35.54;21.98;97317.88;1715635;83;20115;-75
2021/06/28 07:55:22;;;;;;;;;;;;;;;35.58;22.67;97321.72;1732488;83;20100;-75
2021/06/28 07:57:48;;;;;;;;;;;;;;;35.70;22.05;97322.19;1724704;82;20152;-76
2021/06/28 08:00:20;;;;;;;;;;;;;;;35.53;21.92;97321.72;1707266;83;20110;-74
2021/06/28 08:02:48;;;;;;;;;;;;;;;35.52;23.07;97322.28;1681603;85;20109;-75
2021/06/28 08:05:15;;;;;;;;;;;;;;;35.74;23.87;97318.33;1703923;84;20375;-75
2021/06/28 08:07:41;;;;;;;;;;;;;;;35.68;23.20;97325.78;1705279;84;20110;-72
2021/06/28 08:10:11;;;;;;;;;;;;;;;35.39;22.61;97326.41;1705479;83;20106;-76
2021/06/28 08:12:38;;;;;;;;;;;;;;;35.38;22.37;97328.05;1705479;83;20149;-78
2021/06/28 08:15:05;;;;;;;;;;;;;;;35.40;22.66;97324.48;1705310;83;20411;-75
2021/06/28 08:17:31;;;;;;;;;;;;;;;35.51;22.26;97332.14;1703286;84;20130;-73
2021/06/28 08:19:57;;;;;;;;;;;;;;;35.50;22.05;97329.95;1701202;83;20110;-73
2021/06/28 08:22:23;;;;;;;;;;;;;;;35.37;22.83;97334.09;1699547;84;20146;-75
2021/06/28 08:24:49;;;;;;;;;;;;;;;35.37;23.01;97334.62;1704618;84;20114;-83
2021/06/28 08:27:15;;;;;;;;;;;;;;;35.52;22.57;97331.04;1705050;84;20114;-75
2021/06/28 08:29:42;;;;;;;;;;;;;;;35.68;23.03;97329.90;1704597;84;20174;-75
2021/06/28 08:32:09;;;;;;;;;;;;;;;35.70;24.00;97335.09;1699530;84;20167;-75
2021/06/28 08:34:36;;;;;;;;;;;;;;;35.64;22.66;97335.09;1719058;83;20127;-76
2021/06/28 08:37:03;;;;;;;;;;;;;;;35.41;22.93;97332.44;1732647;83;20128;-74
2021/06/28 08:39:31;;;;;;;;;;;;;;;35.36;24.44;97337.92;1732825;83;20104;-78
2021/06/28 08:41:59;;;;;;;;;;;;;;;34.82;23.54;97341.56;1733615;83;20104;-75
2021/06/28 08:44:26;;;;;;;;;;;;;;;34.32;24.53;97334.42;1710499;83;20126;-76
2021/06/28 08:46:52;;;;;;;;;;;;;;;33.52;24.01;97330.06;1716010;83;20158;-76
2021/06/28 08:49:18;;;;;;;;;;;;;;;32.95;25.74;97332.45;1710323;83;20454;-78
2021/06/28 08:51:44;;;;;;;;;;;;;;;32.70;24.88;97331.69;1728658;83;20819;-75
2021/06/28 08:54:12;;;;;;;;;;;;;;;32.77;25.75;97324.66;1728738;83;20452;-76
2021/06/28 08:56:41;;;;;;;;;;;;;;;32.29;25.44;97330.80;1733937;82;20515;-78
2021/06/28 08:59:07;;;;;;;;;;;;;;;31.84;26.43;97337.40;1725680;83;20410;-75
2021/06/28 09:01:36;;;;;;;;;;;;;;;31.72;26.62;97337.55;1707310;83;20418;-76
2021/06/28 09:04:04;;;;;;;;;;;;;;;31.56;26.92;97337.30;1705128;84;20118;-73
2021/06/28 09:06:30;;;;;;;;;;;;;;;31.69;26.83;97333.44;1705149;83;20111;-76
2021/06/28 09:09:10;;;;;;;;;;;;;;;31.95;26.84;97338.33;1707264;83;20157;-75
2021/06/28 09:11:43;;;;;;;;;;;;;;;32.27;27.03;97328.06;1703388;83;20451;-74
2021/06/28 09:14:11;;;;;;;;;;;;;;;32.37;26.40;97337.70;1699240;84;20114;-75
2021/06/28 09:16:39;;;;;;;;;;;;;;;31.74;26.63;97341.66;1694292;83;20138;-77
2021/06/28 09:19:15;;;;;;;;;;;;;;;31.05;27.37;97341.48;1701968;84;20114;-75
2021/06/28 09:21:50;;;;;;;;;;;;;;;30.40;27.84;97339.62;1704691;83;20410;-76
2021/06/28 09:24:37;;;;;;;;;;;;;;;29.75;29.14;97333.50;1721872;83;20169;-74
2021/06/28 09:27:13;;;;;;;;;;;;;;;29.65;29.13;97329.25;1703060;83;20201;-77
2021/06/28 09:29:43;;;;;;;;;;;;;;;29.72;29.27;97328.03;1683143;84;20417;-75
2021/06/28 09:32:15;;;;;;;;;;;;;;;29.88;29.53;97320.20;1685110;84;20146;-74
2021/06/28 09:34:43;;;;;;;;;;;;;;;30.27;29.75;97324.45;1705560;84;20095;-76
2021/06/28 09:37:13;;;;;;;;;;;;;;;30.63;29.11;97325.63;1711260;83;20112;-75
2021/06/28 09:39:43;;;;;;;;;;;;;;;30.63;28.81;97326.98;1688214;83;20132;-77
2021/06/28 09:42:12;;;;;;;;;;;;;;;30.26;28.85;97321.98;1678739;84;20199;-74
2021/06/28 09:44:53;;;;;;;;;;;;;;;30.09;29.25;97318.71;1685034;84;20136;-76
2021/06/28 09:47:25;;;;;;;;;;;;;;;29.79;29.54;97318.39;1696266;83;20088;-74
2021/06/28 09:50:00;;;;;;;;;;;;;;;29.52;29.74;97322.17;1718768;82;20086;-75
2021/06/28 09:52:33;;;;;;;;;;;;;;;29.27;30.53;97319.20;1687661;83;20185;-74
2021/06/28 09:55:18;;;;;;;;;;;;;;;29.24;30.93;97318.30;1719269;83;20151;-74
2021/06/28 09:58:21;;;;;;;;;;;;;;;28.87;31.30;97314.50;1726566;83;20453;-74
2021/06/28 10:00:52;;;;;;;;;;;;;;;28.61;31.56;97313.88;1676659;85;20135;-74
2021/06/28 10:03:37;;;;;;;;;;;;;;;28.50;31.91;97319.59;1678189;84;20108;-76
2021/06/28 10:08:40;;;;;;;;;;;;;;;28.48;32.74;97313.56;1693915;83;20104;-73
2021/06/28 10:11:17;;;;;;;;;;;;;;;28.62;32.40;97312.31;1697315;84;20106;-75
2021/06/28 10:13:57;;;;;;;;;;;;;;;28.77;32.18;97309.68;1703271;84;20561;-76
2021/06/28 10:16:30;;;;;;;;;;;;;;;28.76;32.32;97301.25;1697151;83;20426;-75
2021/06/28 10:18:59;;;;;;;;;;;;;;;28.56;32.64;97308.34;1704118;83;20134;-75
2021/06/28 10:21:27;;;;;;;;;;;;;;;28.26;33.40;97311.39;1728682;83;20173;-74
2021/06/28 10:23:53;;;;;;;;;;;;;;;28.13;33.76;97310.25;1699581;83;20104;-75
2021/06/28 10:26:20;;;;;;;;;;;;;;;27.99;33.89;97309.05;1716903;83;20499;-75
2021/06/28 10:28:47;;;;;;;;;;;;;;;28.04;33.92;97311.91;1724010;83;20153;-74
2021/06/28 10:31:13;;;;;;;;;;;;;;;28.24;33.50;97308.11;1726095;82;20098;-73
2021/06/28 10:33:43;;;;;;;;;;;;;;;28.23;33.36;97311.88;1713656;83;20091;-74
2021/06/28 10:36:13;;;;;;;;;;;;;;;28.13;33.14;97307.55;1706903;83;20476;-76
2021/06/28 10:38:54;;;;;;;;;;;;;;;28.29;33.33;97309.59;1711687;83;20486;-75
2021/06/28 10:41:36;;;;;;;;;;;;;;;28.50;33.01;97300.06;1728267;83;20143;-77
2021/06/28 10:44:06;;;;;;;;;;;;;;;28.70;32.85;97306.23;1720105;83;20135;-75
2021/06/28 10:46:35;;;;;;;;;;;;;;;28.78;32.81;97304.55;1737299;82;20099;-74
2021/06/28 10:49:02;;;;;;;;;;;;;;;28.88;32.28;97310.22;1735080;82;20455;-75
2021/06/28 10:51:43;;;;;;;;;;;;;;;28.97;32.46;97314.73;1735136;82;20174;-75
2021/06/28 10:54:11;;;;;;;;;;;;;;;29.13;32.04;97310.48;1718387;82;20143;-76
2021/06/28 10:56:41;;;;;;;;;;;;;;;28.87;32.01;97308.56;1704900;84;20097;-74
2021/06/28 10:59:17;;;;;;;;;;;;;;;28.87;32.47;97303.66;1726073;82;20147;-73
2021/06/28 11:01:47;;;;;;;;;;;;;;;29.10;31.86;97306.88;1695304;83;20148;-75
2021/06/28 11:04:24;;;;;;;;;;;;;;;29.05;31.53;97314.92;1701653;82;20125;-76
2021/06/28 11:07:02;;;;;;;;;;;;;;;28.97;31.73;97305.24;1712257;83;20113;-75
2021/06/28 11:09:37;;;;;;;;;;;;;;;29.00;31.72;97293.12;1712795;82;20102;-77
2021/06/28 11:12:05;;;;;;;;;;;;;;;29.16;31.16;97298.33;1728068;82;20412;-74
2021/06/28 11:14:37;;;;;;;;;;;;;;;29.25;31.57;97293.66;1712952;82;20105;-76
2021/06/28 11:17:06;;;;;;;;;;;;;;;29.38;31.47;97298.55;1735882;82;20099;-74
2021/06/28 11:19:58;;;;;;;;;;;;;;;29.59;31.47;97293.84;1740547;82;20127;-74
2021/06/28 11:22:45;;;;;;;;;;;;;;;29.89;31.08;97294.14;1707142;82;20114;-75
2021/06/28 11:25:16;;;;;;;;;;;;;;;30.07;31.21;97290.40;1684313;84;20123;-76
2021/06/28 11:28:01;;;;;;;;;;;;;;;30.35;31.52;97285.98;1674561;84;20378;-77
2021/06/28 11:30:29;;;;;;;;;;;;;;;30.59;30.89;97287.74;1706929;82;20446;-74
2021/06/28 11:33:04;;;;;;;;;;;;;;;30.40;30.71;97290.69;1694894;82;20092;-75
2021/06/28 11:35:38;;;;;;;;;;;;;;;30.03;30.67;97287.06;1685806;82;20193;-75
2021/06/28 11:38:23;;;;;;;;;;;;;;;29.76;30.97;97279.48;1712874;83;20117;-75
2021/06/28 11:41:01;;;;;;;;;;;;;;;29.75;30.75;97277.83;1708740;82;20186;-75
2021/06/28 11:43:40;;;;;;;;;;;;;;;29.59;31.54;97276.19;1690579;82;20123;-76
2021/06/28 11:46:10;;;;;;;;;;;;;;;29.69;31.36;97270.66;1706026;82;20120;-77
2021/06/28 11:48:39;;;;;;;;;;;;;;;29.92;30.85;97260.22;1703607;82;20140;-76
2021/06/28 11:51:18;;;;;;;;;;;;;;;30.06;30.37;97260.77;1723255;82;20416;-73
2021/06/28 11:53:53;;;;;;;;;;;;;;;30.15;29.61;97259.30;1692519;82;20140;-76
2021/06/28 11:56:31;;;;;;;;;;;;;;;30.30;30.20;97260.64;1695809;82;20093;-77
2021/06/28 11:59:04;;;;;;;;;;;;;;;30.53;30.45;97259.13;1716986;83;20135;-74
2021/06/28 12:01:33;;;;;;;;;;;;;;;30.71;30.35;97261.84;1716476;82;20129;-76
2021/06/28 12:04:03;;;;;;;;;;;;;;;30.78;29.63;97263.84;1746097;82;20095;-75
2021/06/28 12:06:32;;;;;;;;;;;;;;;30.73;29.67;97262.39;1739578;82;20110;-73
2021/06/28 12:09:08;;;;;;;;;;;;;;;30.69;29.94;97266.14;1715923;83;20098;-74
2021/06/28 12:11:36;;;;;;;;;;;;;;;30.74;29.80;97262.68;1713989;84;20089;-76
2021/06/28 12:14:03;;;;;;;;;;;;;;;30.77;28.75;97257.56;1707576;84;20110;-76
2021/06/28 12:16:29;;;;;;;;;;;;;;;30.82;29.63;97263.61;1710602;83;20367;-78
2021/06/28 12:19:05;;;;;;;;;;;;;;;30.80;29.73;97258.43;1728511;82;20087;-78
2021/06/28 12:21:33;;;;;;;;;;;;;;;30.87;29.55;97250.62;1747804;82;20107;-79
2021/06/28 12:24:11;;;;;;;;;;;;;;;31.02;30.11;97254.92;1747147;82;20107;-74
2021/06/28 12:26:38;;;;;;;;;;;;;;;31.24;29.16;97251.41;1714319;84;20110;-77
2021/06/28 12:29:24;;;;;;;;;;;;;;;31.45;29.29;97241.05;1718636;82;20186;-77
2021/06/28 12:31:50;;;;;;;;;;;;;;;31.71;29.52;97242.72;1687346;85;20096;-76
2021/06/28 12:34:19;;;;;;;;;;;;;;;31.91;29.63;97242.64;1701518;84;20106;-75
2021/06/28 12:36:51;;;;;;;;;;;;;;;31.98;29.02;97240.52;1715848;84;20409;-76
2021/06/28 12:39:25;;;;;;;;;;;;;;;32.06;28.55;97237.32;1710442;84;20104;-77
2021/06/28 12:41:52;;;;;;;;;;;;;;;32.04;28.75;97236.78;1721314;82;20401;-75
2021/06/28 12:44:19;;;;;;;;;;;;;;;31.96;28.90;97236.41;1715113;83;20438;-75
2021/06/28 12:46:46;;;;;;;;;;;;;;;31.87;29.20;97240.98;1697290;83;20409;-75
2021/06/28 12:49:14;;;;;;;;;;;;;;;31.93;28.88;97235.84;1715547;84;20101;-77
2021/06/28 12:51:41;;;;;;;;;;;;;;;32.02;30.06;97238.09;1709544;83;20113;-77
2021/06/28 12:54:26;;;;;;;;;;;;;;;32.07;29.42;97239.52;1687779;84;20100;-77
2021/06/28 12:56:54;;;;;;;;;;;;;;;32.13;29.00;97234.94;1699829;84;20118;-76